Salina Municipal Airport
KSLN : now visible

Airfield :











YOU CAN JOIN US ON...

 
LOGIN :

Register | Disclaimer

   EN    FR    IT 

 









Legend :    VFR   Marginal VFR   IFR   Intensive IFR   Very Intensive IFR
Visi :
Ceiling :
>= 8 km
>= 3000ft
5 to 8 km
1000 to 3000 ft
1500m to 5 km
500 to 1000 ft
800 to 1500m
200 to 500 ft
< 800m
< 200 ft
Symbols :   Thunderstorms  Fog  Heavy snow  Heavy precipitations  Wind > 20 kt






- Airport Elevation : 1288 ft
- IATA code : SLN


KSLN - Salina Municipal

CURRENT METAR :
  • 252353Z 33014KT 10SM OVC012 16/14 A2988 RMK AO2 SLP112 60017 T01610139 10200 20161 54000

EXPIRED METARs :
  • 252253Z 32012KT 10SM OVC010 16/14 A2988 RMK AO2 RAE25 SLP112 P0000 T01610144
  • 252240Z 32015KT 10SM OVC010 17/14 A2988 RMK AO2 RAE25 CIG 008V014 P0000 T01670144
  • 252224Z 32015KT 10SM -RA OVC009 17/15 A2988 RMK AO2 CIG 007V014 P0000 T01670150
  • 252210Z 32015KT 10SM -RA OVC011 17/15 A2988 RMK AO2 P0000 T01670150
  • 252153Z 32014KT 9SM -RA OVC011 17/15 A2988 RMK AO2 CIG 007V014 SLP112 P0008 T01720150
  • 252107Z 31013KT 3SM RA BR BKN006 OVC014 17/16 A2988 RMK AO2 P0005 T01720156

TAF KSLN
Valid from the 26 at 00:00 until the 27 at 00:00 UTC


252320Z 2600/2624 33011KT P6SM VCSH BKN010 OVC130
FM260700 33008KT P6SM VCSH BKN015
FM260900 33008KT P6SM BKN015
KZKC FIR / North America



MET'MAP, your aeronautical weather chart ! - Copyright ORBIFLY December 2007 - Disclaimer

ORBIFLY MET'MAP TEAM :

Programming & Development : Alexandra Zaïnal
Concept & original design : Baudouin d'Aumeries
Assistance for programming : Marc-Olivier Méhu
Technical & hardware support : Manuel Goepfert

Contact : metmap@orbifly.com




SOURCES & CREDITS :

   NOAA       Earth
Advisory